createdAt,value
2019-01-21T00:02:08.849Z,98741.59
2019-01-21T00:04:40.308Z,98738.11
2019-01-21T00:07:11.542Z,98741.23
2019-01-21T00:09:42.886Z,98742.02
2019-01-21T00:12:16.976Z,98739.97
2019-01-21T00:14:50.698Z,98744.45
2019-01-21T00:19:54.901Z,98737.27
2019-01-21T00:22:26.171Z,98749.20
2019-01-21T00:24:57.734Z,98747.59
2019-01-21T00:27:30.705Z,98746.95
2019-01-21T00:30:02.248Z,98744.31
2019-01-21T00:32:34.350Z,98751.53
2019-01-21T00:35:06.699Z,98760.33
2019-01-21T00:37:38.023Z,98757.37
2019-01-21T00:40:10.569Z,98760.88
2019-01-21T00:42:42.139Z,98763.05
2019-01-21T00:45:13.628Z,98762.83
2019-01-21T00:47:45.271Z,98763.27
2019-01-21T00:50:16.786Z,98762.50
2019-01-21T00:52:48.229Z,98769.61
2019-01-21T00:55:20.495Z,98774.48
2019-01-21T00:57:51.593Z,98773.37
2019-01-21T01:00:24.805Z,98773.77
2019-01-21T01:02:56.387Z,98772.30
2019-01-21T01:05:27.701Z,98778.36
2019-01-21T01:07:58.860Z,98780.96
2019-01-21T01:10:30.892Z,98777.67
2019-01-21T01:13:09.098Z,98779.90
2019-01-21T01:15:40.324Z,98781.80
2019-01-21T01:18:11.417Z,98779.75
2019-01-21T01:20:42.607Z,98779.86
2019-01-21T01:23:13.990Z,98781.07
2019-01-21T01:25:45.147Z,98791.55
2019-01-21T01:28:16.600Z,98789.49
2019-01-21T01:30:47.979Z,98794.31
2019-01-21T01:33:19.232Z,98797.05
2019-01-21T01:35:50.304Z,98796.25
2019-01-21T01:38:21.517Z,98796.41
2019-01-21T01:40:52.853Z,98804.20
2019-01-21T01:43:24.242Z,98804.78
2019-01-21T01:45:55.933Z,98804.05
2019-01-21T01:48:27.241Z,98815.30
2019-01-21T01:50:59.804Z,98809.80
2019-01-21T01:53:31.443Z,98813.13
2019-01-21T01:56:03.003Z,98814.77
2019-01-21T01:58:34.217Z,98812.50
2019-01-21T02:01:06.391Z,98811.08
2019-01-21T02:03:37.698Z,98806.49
2019-01-21T02:06:08.765Z,98806.24
2019-01-21T02:08:40.144Z,98813.91
2019-01-21T02:11:11.242Z,98816.06
2019-01-21T02:13:42.835Z,98817.38
2019-01-21T02:16:16.053Z,98814.13
2019-01-21T02:18:47.354Z,98815.30
2019-01-21T02:21:20.972Z,98812.71
2019-01-21T02:23:55.938Z,98816.25
2019-01-21T02:26:30.251Z,98813.66
2019-01-21T02:29:07.795Z,98823.38
2019-01-21T02:32:09.702Z,98814.64
2019-01-21T02:35:17.077Z,98816.19
2019-01-21T02:38:20.604Z,98815.72
2019-01-21T02:41:35.419Z,98817.98
2019-01-21T02:44:33.761Z,98811.27
2019-01-21T02:47:50.054Z,98815.96
2019-01-21T02:50:46.248Z,98808.78
2019-01-21T02:53:43.851Z,98807.46
2019-01-21T02:56:56.713Z,98810.43
2019-01-21T02:59:52.458Z,98801.97
2019-01-21T03:02:48.873Z,98810.09
2019-01-21T03:06:15.989Z,98816.90
2019-01-21T03:09:14.002Z,98818.31
2019-01-21T03:12:31.290Z,98824.88
2019-01-21T03:15:46.315Z,98822.96
2019-01-21T03:19:02.635Z,98823.08
2019-01-21T03:22:25.942Z,98827.48
2019-01-21T03:25:36.971Z,98830.97
2019-01-21T03:28:45.353Z,98828.20
2019-01-21T03:31:52.624Z,98836.11
2019-01-21T03:35:03.504Z,98834.56
2019-01-21T03:38:24.165Z,98842.81
2019-01-21T03:41:26.353Z,98835.39
2019-01-21T03:44:20.652Z,98837.66
2019-01-21T03:47:42.851Z,98839.97
2019-01-21T03:50:39.866Z,98839.97
2019-01-21T03:53:54.897Z,98839.60
2019-01-21T03:56:59.550Z,98846.19
2019-01-21T03:59:56.689Z,98842.75
2019-01-21T04:03:05.547Z,98842.14
2019-01-21T04:06:10.007Z,98840.48
2019-01-21T04:09:36.528Z,98849.70
2019-01-21T04:12:50.528Z,98846.31
2019-01-21T04:15:39.404Z,98855.05
2019-01-21T04:18:40.030Z,98857.68
2019-01-21T04:21:56.765Z,98851.70
2019-01-21T04:25:11.956Z,98857.44
2019-01-21T04:28:20.075Z,98855.41
2019-01-21T04:31:41.396Z,98869.03
2019-01-21T04:35:02.728Z,98869.17
2019-01-21T04:38:05.370Z,98868.56
2019-01-21T04:41:13.341Z,98869.16
2019-01-21T04:44:25.905Z,98874.19
2019-01-21T04:47:17.787Z,98869.38
2019-01-21T04:50:35.680Z,98881.37
2019-01-21T04:53:37.932Z,98878.48
2019-01-21T04:56:38.424Z,98874.52
2019-01-21T04:59:55.710Z,98881.94
2019-01-21T05:03:17.083Z,98880.47
2019-01-21T05:06:56.829Z,98877.12
2019-01-21T05:10:11.964Z,98882.77
2019-01-21T05:13:08.370Z,98877.25
2019-01-21T05:16:15.383Z,98878.67
2019-01-21T05:19:17.893Z,98884.16
2019-01-21T05:22:27.534Z,98884.75
2019-01-21T05:25:48.440Z,98886.65
2019-01-21T05:29:08.808Z,98888.32
2019-01-21T05:32:17.731Z,98891.08
2019-01-21T05:35:23.068Z,98890.22
2019-01-21T05:38:31.585Z,98892.50
2019-01-21T05:41:46.413Z,98895.49
2019-01-21T05:44:59.441Z,98901.02
2019-01-21T05:48:17.158Z,98900.05
2019-01-21T05:51:43.589Z,98896.68
2019-01-21T05:54:58.494Z,98905.07
2019-01-21T05:58:02.307Z,98909.48
2019-01-21T06:01:05.002Z,98904.45
2019-01-21T06:04:13.811Z,98910.33
2019-01-21T06:07:13.626Z,98904.09
2019-01-21T06:10:14.614Z,98914.50
2019-01-21T06:13:22.034Z,98907.30
2019-01-21T06:16:33.153Z,98908.63
2019-01-21T06:19:48.175Z,98910.44
2019-01-21T06:22:51.381Z,98912.36
2019-01-21T06:25:55.657Z,98915.37
2019-01-21T06:28:59.422Z,98919.30
2019-01-21T06:32:06.646Z,98925.87
2019-01-21T06:35:30.463Z,98922.04
2019-01-21T06:38:42.465Z,98924.17
2019-01-21T06:41:42.718Z,98923.06
2019-01-21T06:44:41.836Z,98928.41
2019-01-21T06:47:54.782Z,98926.98
2019-01-21T06:50:50.572Z,98931.72
2019-01-21T06:53:57.842Z,98934.72
2019-01-21T06:57:00.794Z,98942.05
2019-01-21T07:00:17.555Z,98949.12
2019-01-21T07:03:30.255Z,98955.81
2019-01-21T07:06:40.897Z,98955.23
2019-01-21T07:09:46.842Z,98951.61
2019-01-21T07:13:05.163Z,98955.81
2019-01-21T07:16:13.439Z,98954.52
2019-01-21T07:19:22.805Z,98960.41
2019-01-21T07:22:17.193Z,98964.36
2019-01-21T07:25:21.274Z,98968.56
2019-01-21T07:28:28.450Z,98968.95
2019-01-21T07:31:37.370Z,98964.27
2019-01-21T07:35:10.424Z,98967.02
2019-01-21T07:38:11.960Z,98973.63
2019-01-21T07:41:32.391Z,98971.59
2019-01-21T07:44:36.783Z,98969.66
2019-01-21T07:47:55.042Z,98982.80
2019-01-21T07:50:56.184Z,98993.96
2019-01-21T07:54:17.265Z,98989.20
2019-01-21T07:57:25.963Z,98993.17
2019-01-21T08:00:12.036Z,98995.80
2019-01-21T08:03:25.781Z,98999.62
2019-01-21T08:06:32.583Z,98991.39
2019-01-21T08:09:34.620Z,98991.39
2019-01-21T08:12:31.750Z,99000.10
2019-01-21T08:15:36.581Z,98999.38
2019-01-21T08:18:59.119Z,99000.73
2019-01-21T08:22:05.241Z,99004.31
2019-01-21T08:25:15.995Z,99004.58
2019-01-21T08:28:17.312Z,99007.21
2019-01-21T08:31:25.978Z,99013.20
2019-01-21T08:34:44.140Z,99011.98
2019-01-21T08:38:08.341Z,99010.91
2019-01-21T08:41:17.729Z,99015.63
2019-01-21T08:44:12.644Z,99008.89
2019-01-21T08:47:11.673Z,99014.62
2019-01-21T08:50:32.638Z,99018.22
2019-01-21T08:54:05.700Z,99016.77
2019-01-21T08:57:08.739Z,99015.42
2019-01-21T09:00:08.457Z,99018.55
2019-01-21T09:03:21.715Z,99027.87
2019-01-21T09:06:34.782Z,99025.95
2019-01-21T09:09:45.044Z,99032.63
2019-01-21T09:13:11.924Z,99033.71
2019-01-21T09:15:55.264Z,99047.63
2019-01-21T09:19:10.254Z,99045.38
2019-01-21T09:22:31.003Z,99046.56
2019-01-21T09:25:32.743Z,99043.17
2019-01-21T09:28:43.959Z,99044.58
2019-01-21T09:31:46.645Z,99044.31
2019-01-21T09:35:03.396Z,99043.92
2019-01-21T09:38:21.390Z,99044.40
2019-01-21T09:41:36.333Z,99044.48
2019-01-21T09:44:38.156Z,99034.60
2019-01-21T09:47:07.670Z,99040.08
2019-01-21T09:49:37.153Z,99032.80
2019-01-21T09:52:10.452Z,99036.47
2019-01-21T09:54:42.812Z,99042.56
2019-01-21T09:57:21.435Z,99037.87
2019-01-21T09:59:59.823Z,99038.23
2019-01-21T10:02:50.959Z,99030.45
2019-01-21T10:05:23.851Z,99029.13
2019-01-21T10:08:21.982Z,99024.98
2019-01-21T10:11:40.784Z,99014.53
2019-01-21T10:15:01.619Z,99024.13
2019-01-21T10:18:17.566Z,99016.28
2019-01-21T10:21:56.708Z,99018.22
2019-01-21T10:25:08.631Z,99016.84
2019-01-21T10:28:11.473Z,99016.48
2019-01-21T10:31:04.523Z,99013.98
2019-01-21T10:34:33.300Z,99011.68
2019-01-21T10:37:41.308Z,99002.66
2019-01-21T10:40:54.091Z,99009.82
2019-01-21T10:43:53.253Z,99008.98
2019-01-21T10:46:55.117Z,98997.64
2019-01-21T10:50:01.781Z,98997.44
2019-01-21T10:52:54.852Z,98994.87
2019-01-21T10:56:00.540Z,98992.32
2019-01-21T10:59:15.554Z,98994.34
2019-01-21T11:02:20.695Z,98994.66
2019-01-21T11:05:15.735Z,98994.63
2019-01-21T11:08:30.675Z,98990.41
2019-01-21T11:12:03.761Z,98991.05
2019-01-21T11:14:56.421Z,98979.85
2019-01-21T11:18:05.676Z,98981.53
2019-01-21T11:21:12.134Z,98983.14
2019-01-21T11:24:48.540Z,98971.41
2019-01-21T11:27:56.273Z,98969.47
2019-01-21T11:30:55.274Z,98970.89
2019-01-21T11:34:19.617Z,98960.45
2019-01-21T11:37:03.989Z,98961.91
2019-01-21T11:40:30.241Z,98962.70
2019-01-21T11:43:38.185Z,98953.80
2019-01-21T11:46:34.237Z,98955.60
2019-01-21T11:49:39.099Z,98956.13
2019-01-21T11:52:38.686Z,98951.02
2019-01-21T11:55:54.904Z,98947.09
2019-01-21T11:59:15.886Z,98946.30
2019-01-21T12:02:33.118Z,98953.77
2019-01-21T12:05:48.275Z,98946.95
2019-01-21T12:09:01.891Z,98937.05
2019-01-21T12:12:09.513Z,98939.27
2019-01-21T12:15:20.308Z,98931.98
2019-01-21T12:18:21.674Z,98936.78
2019-01-21T12:21:36.075Z,98924.52
2019-01-21T12:24:20.321Z,98932.44
2019-01-21T12:27:27.105Z,98928.75
2019-01-21T12:30:37.876Z,98918.44
2019-01-21T12:33:40.872Z,98913.84
2019-01-21T12:36:41.489Z,98910.80
2019-01-21T12:39:43.320Z,98910.71
2019-01-21T12:42:57.507Z,98908.27
2019-01-21T12:45:57.050Z,98903.80
2019-01-21T12:49:00.945Z,98905.91
2019-01-21T12:52:18.658Z,98898.27
2019-01-21T12:55:39.618Z,98902.78
2019-01-21T12:58:35.938Z,98900.13
2019-01-21T13:01:48.701Z,98891.20
2019-01-21T13:05:00.204Z,98891.84
2019-01-21T13:08:11.912Z,98891.22
2019-01-21T13:11:30.229Z,98890.94
2019-01-21T13:14:26.495Z,98894.30
2019-01-21T13:17:25.956Z,98897.27
2019-01-21T13:20:42.580Z,98894.84
2019-01-21T13:23:24.261Z,98893.44
2019-01-21T13:26:35.200Z,98886.91
2019-01-21T13:29:55.464Z,98885.98
2019-01-21T13:33:00.054Z,98884.95
2019-01-21T13:36:24.270Z,98887.11
2019-01-21T13:39:12.639Z,98880.55
2019-01-21T13:41:49.777Z,98874.16
2019-01-21T13:44:47.453Z,98874.16
2019-01-21T13:47:49.888Z,98873.89
2019-01-21T13:50:30.226Z,98867.82
2019-01-21T13:53:45.126Z,98869.76
2019-01-21T13:57:09.383Z,98870.80
2019-01-21T14:00:24.630Z,98862.03
2019-01-21T14:03:22.931Z,98859.73
2019-01-21T14:06:29.954Z,98847.31
2019-01-21T14:09:54.329Z,98853.13
2019-01-21T14:12:35.522Z,98842.98
2019-01-21T14:15:43.318Z,98838.24
2019-01-21T14:18:54.451Z,98824.44
2019-01-21T14:22:18.891Z,98829.22
2019-01-21T14:25:23.693Z,98820.99
2019-01-21T14:28:24.130Z,98819.87
2019-01-21T14:31:36.692Z,98817.44
2019-01-21T14:34:49.630Z,98827.66
2019-01-21T14:37:38.103Z,98821.77
2019-01-21T14:40:40.850Z,98823.24
2019-01-21T14:43:52.384Z,98823.03
2019-01-21T14:47:15.761Z,98816.02
2019-01-21T14:50:20.806Z,98810.88
2019-01-21T14:53:13.122Z,98819.70
2019-01-21T14:56:02.735Z,98817.83
2019-01-21T14:59:19.774Z,98815.38
2019-01-21T15:02:28.590Z,98820.61
2019-01-21T15:05:35.965Z,98817.51
2019-01-21T15:08:19.829Z,98821.84
2019-01-21T15:11:39.412Z,98817.30
2019-01-21T15:14:51.308Z,98819.13
2019-01-21T15:17:50.752Z,98812.61
2019-01-21T15:20:47.133Z,98818.38
2019-01-21T15:23:49.707Z,98818.64
2019-01-21T15:26:30.687Z,98816.97
2019-01-21T15:29:38.789Z,98818.38
2019-01-21T15:32:23.891Z,98814.41
2019-01-21T15:35:24.291Z,98814.41
2019-01-21T15:38:45.521Z,98817.14
2019-01-21T15:42:02.193Z,98816.06
2019-01-21T15:45:19.128Z,98818.77
2019-01-21T15:48:25.817Z,98814.55
2019-01-21T15:54:42.380Z,98816.87
2019-01-21T15:57:47.134Z,98815.43
2019-01-21T16:00:52.231Z,98811.85
2019-01-21T16:03:42.739Z,98814.32
2019-01-21T16:06:40.342Z,98803.70
2019-01-21T16:09:59.964Z,98808.50
2019-01-21T16:13:14.946Z,98811.98
2019-01-21T16:16:31.736Z,98807.72
2019-01-21T16:19:10.967Z,98810.93
2019-01-21T16:22:18.438Z,98811.71
2019-01-21T16:25:01.051Z,98811.41
2019-01-21T16:28:07.803Z,98811.98
2019-01-21T16:31:25.786Z,98817.54
2019-01-21T16:34:38.602Z,98818.59
2019-01-21T16:37:34.112Z,98811.98
2019-01-21T16:41:00.570Z,98822.08
2019-01-21T16:43:32.209Z,98814.42
2019-01-21T16:46:03.626Z,98807.95
2019-01-21T16:48:36.791Z,98804.41
2019-01-21T16:51:07.927Z,98809.61
2019-01-21T16:53:39.006Z,98802.31
2019-01-21T16:56:11.086Z,98802.41
2019-01-21T16:58:42.696Z,98806.30
2019-01-21T17:01:15.072Z,98804.89
2019-01-21T17:03:46.806Z,98799.04
2019-01-21T17:06:19.204Z,98801.47
2019-01-21T17:08:52.028Z,98793.97
2019-01-21T17:11:24.547Z,98801.83
2019-01-21T17:13:55.847Z,98800.62
2019-01-21T17:16:26.886Z,98800.00
2019-01-21T17:18:57.955Z,98795.67
2019-01-21T17:21:29.008Z,98801.05
2019-01-21T17:24:00.008Z,98796.73
2019-01-21T17:26:31.019Z,98793.12
2019-01-21T17:29:02.007Z,98795.34
2019-01-21T17:31:33.225Z,98800.57
2019-01-21T17:34:04.596Z,98795.08
2019-01-21T17:36:35.768Z,98789.91
2019-01-21T17:39:09.146Z,98787.27
2019-01-21T17:41:40.482Z,98789.01
2019-01-21T17:44:11.561Z,98790.98
2019-01-21T17:46:42.652Z,98785.80
2019-01-21T17:49:13.790Z,98789.28
2019-01-21T17:51:44.867Z,98787.59
2019-01-21T17:54:15.912Z,98773.91
2019-01-21T17:56:49.801Z,98782.46
2019-01-21T17:59:21.039Z,98776.45
2019-01-21T18:01:52.832Z,98782.58
2019-01-21T18:04:24.941Z,98773.27
2019-01-21T18:06:56.281Z,98774.80
2019-01-21T18:09:28.237Z,98769.16
2019-01-21T18:11:59.459Z,98770.16
2019-01-21T18:14:33.403Z,98773.06
2019-01-21T18:17:07.351Z,98771.74
2019-01-21T18:19:39.292Z,98775.59
2019-01-21T18:22:12.561Z,98768.11
2019-01-21T18:24:44.915Z,98778.50
2019-01-21T18:27:20.865Z,98776.51
2019-01-21T18:29:51.980Z,98784.68
2019-01-21T18:32:24.062Z,98777.30
2019-01-21T18:34:56.238Z,98776.61
2019-01-21T18:37:27.384Z,98774.33
2019-01-21T18:39:58.487Z,98786.55
2019-01-21T18:42:29.815Z,98774.86
2019-01-21T18:45:01.122Z,98778.92
2019-01-21T18:47:32.134Z,98770.99
2019-01-21T18:50:03.257Z,98763.55
2019-01-21T18:52:34.255Z,98765.34
2019-01-21T18:55:06.334Z,98759.02
2019-01-21T18:57:37.362Z,98762.11
2019-01-21T19:00:12.308Z,98770.72
2019-01-21T19:02:59.562Z,98774.90
2019-01-21T19:05:31.090Z,98768.17
2019-01-21T19:08:02.069Z,98768.92
2019-01-21T19:10:33.048Z,98769.31
2019-01-21T19:13:04.136Z,98767.72
2019-01-21T19:15:35.171Z,98765.44
2019-01-21T19:18:06.362Z,98768.98
2019-01-21T19:20:37.419Z,98761.11
2019-01-21T19:23:08.633Z,98759.59
2019-01-21T19:25:40.242Z,98765.05
2019-01-21T19:28:11.312Z,98761.92
2019-01-21T19:30:42.509Z,98763.61
2019-01-21T19:33:13.623Z,98761.77
2019-01-21T19:35:45.125Z,98761.38
2019-01-21T19:38:16.425Z,98769.37
2019-01-21T19:40:47.598Z,98761.23
2019-01-21T19:43:18.712Z,98767.36
2019-01-21T19:45:49.926Z,98763.61
2019-01-21T19:48:21.039Z,98762.38
2019-01-21T19:50:52.090Z,98753.37
2019-01-21T19:53:23.502Z,98749.77
2019-01-21T19:55:54.986Z,98754.30
2019-01-21T19:58:26.301Z,98755.11
2019-01-21T20:00:57.321Z,98750.16
2019-01-21T20:03:29.303Z,98750.55
2019-01-21T20:06:00.539Z,98744.69
2019-01-21T20:08:32.805Z,98753.52
2019-01-21T20:11:04.903Z,98743.16
2019-01-21T20:13:41.644Z,98738.80
2019-01-21T20:16:12.758Z,98741.30
2019-01-21T20:18:44.273Z,98742.95
2019-01-21T20:21:16.578Z,98737.31
2019-01-21T20:23:50.015Z,98736.34
2019-01-21T20:26:22.109Z,98740.19
2019-01-21T20:28:53.387Z,98731.21
2019-01-21T20:31:24.501Z,98728.91
2019-01-21T20:33:58.356Z,98729.59
2019-01-21T20:36:30.637Z,98726.26
2019-01-21T20:39:02.605Z,98725.03
2019-01-21T20:41:35.745Z,98713.14
2019-01-21T20:44:07.597Z,98721.63
2019-01-21T20:46:39.830Z,98712.95
2019-01-21T20:49:10.983Z,98713.02
2019-01-21T20:51:42.638Z,98715.00
2019-01-21T20:54:15.993Z,98711.04
2019-01-21T20:56:48.943Z,98720.86
2019-01-21T20:59:20.718Z,98719.89
2019-01-21T21:01:54.311Z,98713.41
2019-01-21T21:04:25.443Z,98725.03
2019-01-21T21:06:59.410Z,98711.80
2019-01-21T21:09:31.552Z,98712.48
2019-01-21T21:12:03.409Z,98712.03
2019-01-21T21:14:35.728Z,98710.77
2019-01-21T21:17:08.790Z,98722.02
2019-01-21T21:19:42.923Z,98712.50
2019-01-21T21:22:21.032Z,98712.30
2019-01-21T21:24:52.949Z,98714.02
2019-01-21T21:27:25.415Z,98712.33
2019-01-21T21:30:00.279Z,98710.95
2019-01-21T21:32:32.366Z,98705.41
2019-01-21T21:35:08.190Z,98699.69
2019-01-21T21:37:44.394Z,98700.05
2019-01-21T21:40:17.606Z,98701.65
2019-01-21T21:42:57.187Z,98696.73
2019-01-21T21:45:28.509Z,98696.66
2019-01-21T21:48:03.019Z,98704.11
2019-01-21T21:50:39.991Z,98705.45
2019-01-21T21:53:11.495Z,98709.21
2019-01-21T21:55:47.094Z,98702.01
2019-01-21T21:58:23.170Z,98709.39
2019-01-21T22:01:02.059Z,98698.25
2019-01-21T22:03:40.423Z,98698.91
2019-01-21T22:06:13.356Z,98696.13
2019-01-21T22:08:47.104Z,98694.06
2019-01-21T22:11:22.426Z,98697.17
2019-01-21T22:13:57.194Z,98700.03
2019-01-21T22:16:29.458Z,98691.83
2019-01-21T22:19:06.328Z,98691.50
2019-01-21T22:21:38.800Z,98690.99
2019-01-21T22:24:12.305Z,98689.88
2019-01-21T22:26:46.280Z,98686.83
2019-01-21T22:29:21.387Z,98683.34
2019-01-21T22:31:55.910Z,98686.16
2019-01-21T22:34:28.742Z,98682.50
2019-01-21T22:37:02.134Z,98683.19
2019-01-21T22:39:38.898Z,98686.89
2019-01-21T22:42:15.301Z,98685.56
2019-01-21T22:44:51.005Z,98682.41
2019-01-21T22:47:23.369Z,98679.41
2019-01-21T22:49:54.983Z,98678.98
2019-01-21T22:52:26.076Z,98677.23
2019-01-21T22:55:01.345Z,98670.48
2019-01-21T22:57:32.742Z,98666.20
2019-01-21T23:00:11.146Z,98665.88
2019-01-21T23:02:46.059Z,98668.76
2019-01-21T23:05:21.654Z,98668.31
2019-01-21T23:07:55.950Z,98661.20
2019-01-21T23:10:27.955Z,98653.55
2019-01-21T23:12:59.420Z,98660.36
2019-01-21T23:15:32.611Z,98661.14
2019-01-21T23:18:04.521Z,98659.61
2019-01-21T23:20:38.181Z,98655.23
2019-01-21T23:23:10.913Z,98656.40
2019-01-21T23:25:44.626Z,98654.75
2019-01-21T23:28:16.765Z,98651.00
2019-01-21T23:30:53.787Z,98656.67
2019-01-21T23:33:26.110Z,98647.88
2019-01-21T23:35:59.986Z,98645.09
2019-01-21T23:38:32.714Z,98636.48
2019-01-21T23:41:04.294Z,98641.82
2019-01-21T23:43:35.746Z,98638.38
2019-01-21T23:46:08.905Z,98632.30
2019-01-21T23:48:41.151Z,98632.73
2019-01-21T23:51:14.505Z,98632.94
2019-01-21T23:53:49.570Z,98630.09
2019-01-21T23:56:23.255Z,98628.98
2019-01-21T23:58:56.272Z,98619.80
